sensor_id;sensor_type;location;lat;lon;timestamp;P1;durP1;ratioP1;P2;durP2;ratioP2
46158;SDS011;74657;45.650;25.590;2024-03-23T00:55:53;0.10;;;0.10;;
46158;SDS011;74657;45.650;25.590;2024-03-23T00:58:14;0.10;;;0.10;;
46158;SDS011;74657;45.650;25.590;2024-03-23T01:00:36;0.10;;;0.10;;
46158;SDS011;74657;45.650;25.590;2024-03-23T01:02:57;0.10;;;0.10;;
46158;SDS011;74657;45.650;25.590;2024-03-23T01:05:19;0.10;;;0.10;;
46158;SDS011;74657;45.650;25.590;2024-03-23T01:07:40;0.10;;;0.10;;
46158;SDS011;74657;45.650;25.590;2024-03-23T01:10:03;0.10;;;0.10;;
46158;SDS011;74657;45.650;25.590;2024-03-23T01:12:24;0.10;;;0.10;;
46158;SDS011;74657;45.650;25.590;2024-03-23T01:14:46;0.10;;;0.10;;
46158;SDS011;74657;45.650;25.590;2024-03-23T01:17:07;0.10;;;0.10;;
46158;SDS011;74657;45.650;25.590;2024-03-23T01:19:30;0.10;;;0.10;;
46158;SDS011;74657;45.650;25.590;2024-03-23T01:21:50;0.10;;;0.10;;
46158;SDS011;74657;45.650;25.590;2024-03-23T01:24:12;0.10;;;0.10;;
46158;SDS011;74657;45.650;25.590;2024-03-23T01:26:35;0.10;;;0.10;;
46158;SDS011;74657;45.650;25.590;2024-03-23T01:28:58;0.10;;;0.10;;
46158;SDS011;74657;45.650;25.590;2024-03-23T01:31:18;0.10;;;0.10;;
46158;SDS011;74657;45.650;25.590;2024-03-23T01:33:40;0.10;;;0.10;;
46158;SDS011;74657;45.650;25.590;2024-03-23T01:36:01;0.10;;;0.10;;
46158;SDS011;74657;45.650;25.590;2024-03-23T01:38:23;0.10;;;0.10;;
46158;SDS011;74657;45.650;25.590;2024-03-23T01:40:43;0.10;;;0.10;;
46158;SDS011;74657;45.650;25.590;2024-03-23T01:43:07;0.10;;;0.10;;
46158;SDS011;74657;45.650;25.590;2024-03-23T01:45:28;0.10;;;0.10;;
46158;SDS011;74657;45.650;25.590;2024-03-23T01:47:51;0.10;;;0.10;;
46158;SDS011;74657;45.650;25.590;2024-03-23T01:50:12;0.10;;;0.10;;
46158;SDS011;74657;45.650;25.590;2024-03-23T01:52:35;0.20;;;0.20;;
46158;SDS011;74657;45.650;25.590;2024-03-23T01:54:55;0.10;;;0.10;;
46158;SDS011;74657;45.650;25.590;2024-03-23T01:57:17;0.10;;;0.10;;
46158;SDS011;74657;45.650;25.590;2024-03-23T01:59:41;0.10;;;0.10;;
46158;SDS011;74657;45.650;25.590;2024-03-23T02:02:03;0.10;;;0.10;;
46158;SDS011;74657;45.650;25.590;2024-03-23T02:04:24;0.10;;;0.10;;
46158;SDS011;74657;45.650;25.590;2024-03-23T02:06:46;0.10;;;0.10;;
46158;SDS011;74657;45.650;25.590;2024-03-23T02:09:07;0.20;;;0.20;;
46158;SDS011;74657;45.650;25.590;2024-03-23T02:11:29;0.10;;;0.10;;
46158;SDS011;74657;45.650;25.590;2024-03-23T02:13:50;0.10;;;0.10;;
46158;SDS011;74657;45.650;25.590;2024-03-23T02:16:13;0.10;;;0.10;;
46158;SDS011;74657;45.650;25.590;2024-03-23T02:18:34;0.10;;;0.10;;
46158;SDS011;74657;45.650;25.590;2024-03-23T02:20:56;0.10;;;0.10;;
46158;SDS011;74657;45.650;25.590;2024-03-23T02:23:19;0.10;;;0.10;;
46158;SDS011;74657;45.650;25.590;2024-03-23T02:25:41;0.10;;;0.10;;
46158;SDS011;74657;45.650;25.590;2024-03-23T02:28:02;0.10;;;0.10;;
46158;SDS011;74657;45.650;25.590;2024-03-23T02:30:25;0.20;;;0.20;;
46158;SDS011;74657;45.650;25.590;2024-03-23T02:32:46;0.10;;;0.10;;
46158;SDS011;74657;45.650;25.590;2024-03-23T02:35:08;0.10;;;0.10;;
46158;SDS011;74657;45.650;25.590;2024-03-23T02:37:29;0.10;;;0.10;;
46158;SDS011;74657;45.650;25.590;2024-03-23T02:39:53;0.10;;;0.10;;
46158;SDS011;74657;45.650;25.590;2024-03-23T02:42:14;0.10;;;0.10;;
46158;SDS011;74657;45.650;25.590;2024-03-23T02:44:37;0.10;;;0.10;;
46158;SDS011;74657;45.650;25.590;2024-03-23T02:46:57;0.10;;;0.10;;
46158;SDS011;74657;45.650;25.590;2024-03-23T02:49:19;0.10;;;0.10;;
46158;SDS011;74657;45.650;25.590;2024-03-23T02:51:40;0.10;;;0.10;;
46158;SDS011;74657;45.650;25.590;2024-03-23T02:54:04;0.10;;;0.10;;
46158;SDS011;74657;45.650;25.590;2024-03-23T02:56:27;0.10;;;0.10;;
46158;SDS011;74657;45.650;25.590;2024-03-23T02:58:49;0.10;;;0.10;;
46158;SDS011;74657;45.650;25.590;2024-03-23T03:01:10;0.10;;;0.10;;
46158;SDS011;74657;45.650;25.590;2024-03-23T03:03:32;0.10;;;0.10;;
46158;SDS011;74657;45.650;25.590;2024-03-23T03:05:54;0.10;;;0.10;;
46158;SDS011;74657;45.650;25.590;2024-03-23T03:08:17;0.10;;;0.10;;
46158;SDS011;74657;45.650;25.590;2024-03-23T03:10:37;0.10;;;0.10;;
46158;SDS011;74657;45.650;25.590;2024-03-23T03:13:01;0.10;;;0.10;;
46158;SDS011;74657;45.650;25.590;2024-03-23T03:15:22;0.10;;;0.10;;
46158;SDS011;74657;45.650;25.590;2024-03-23T03:17:45;0.10;;;0.10;;
46158;SDS011;74657;45.650;25.590;2024-03-23T03:20:06;0.10;;;0.10;;
46158;SDS011;74657;45.650;25.590;2024-03-23T03:22:33;0.10;;;0.10;;
46158;SDS011;74657;45.650;25.590;2024-03-23T03:24:53;0.10;;;0.10;;
46158;SDS011;74657;45.650;25.590;2024-03-23T03:27:15;0.10;;;0.10;;
46158;SDS011;74657;45.650;25.590;2024-03-23T03:29:38;0.10;;;0.10;;
46158;SDS011;74657;45.650;25.590;2024-03-23T03:32:00;0.10;;;0.10;;
46158;SDS011;74657;45.650;25.590;2024-03-23T03:34:20;0.10;;;0.10;;
46158;SDS011;74657;45.650;25.590;2024-03-23T03:36:42;0.10;;;0.10;;
46158;SDS011;74657;45.650;25.590;2024-03-23T03:39:03;0.10;;;0.10;;
46158;SDS011;74657;45.650;25.590;2024-03-23T03:41:26;0.10;;;0.10;;
46158;SDS011;74657;45.650;25.590;2024-03-23T03:43:47;0.10;;;0.10;;
46158;SDS011;74657;45.650;25.590;2024-03-23T03:46:10;0.10;;;0.10;;
46158;SDS011;74657;45.650;25.590;2024-03-23T03:48:31;0.10;;;0.10;;
46158;SDS011;74657;45.650;25.590;2024-03-23T03:50:53;0.10;;;0.10;;
46158;SDS011;74657;45.650;25.590;2024-03-23T03:53:14;0.10;;;0.10;;
46158;SDS011;74657;45.650;25.590;2024-03-23T03:55:35;0.10;;;0.10;;
46158;SDS011;74657;45.650;25.590;2024-03-23T03:57:56;0.10;;;0.10;;
46158;SDS011;74657;45.650;25.590;2024-03-23T04:00:19;0.15;;;0.15;;
46158;SDS011;74657;45.650;25.590;2024-03-23T04:02:41;0.10;;;0.10;;
46158;SDS011;74657;45.650;25.590;2024-03-23T04:05:03;0.10;;;0.10;;
46158;SDS011;74657;45.650;25.590;2024-03-23T04:07:24;0.10;;;0.10;;
46158;SDS011;74657;45.650;25.590;2024-03-23T04:09:46;0.10;;;0.10;;
46158;SDS011;74657;45.650;25.590;2024-03-23T04:12:07;0.10;;;0.10;;
46158;SDS011;74657;45.650;25.590;2024-03-23T04:14:30;0.10;;;0.10;;
46158;SDS011;74657;45.650;25.590;2024-03-23T04:16:51;0.10;;;0.10;;
46158;SDS011;74657;45.650;25.590;2024-03-23T04:19:14;0.10;;;0.10;;
46158;SDS011;74657;45.650;25.590;2024-03-23T04:21:35;0.10;;;0.10;;
46158;SDS011;74657;45.650;25.590;2024-03-23T04:23:58;0.10;;;0.10;;
46158;SDS011;74657;45.650;25.590;2024-03-23T04:26:19;0.10;;;0.10;;
46158;SDS011;74657;45.650;25.590;2024-03-23T04:28:41;0.10;;;0.10;;
46158;SDS011;74657;45.650;25.590;2024-03-23T04:31:03;0.10;;;0.10;;
46158;SDS011;74657;45.650;25.590;2024-03-23T04:33:25;0.10;;;0.10;;
46158;SDS011;74657;45.650;25.590;2024-03-23T04:35:50;0.10;;;0.10;;
46158;SDS011;74657;45.650;25.590;2024-03-23T04:38:11;0.10;;;0.10;;
46158;SDS011;74657;45.650;25.590;2024-03-23T04:40:34;0.10;;;0.10;;
46158;SDS011;74657;45.650;25.590;2024-03-23T04:42:55;0.10;;;0.10;;
46158;SDS011;74657;45.650;25.590;2024-03-23T04:45:17;0.10;;;0.10;;
46158;SDS011;74657;45.650;25.590;2024-03-23T04:47:39;0.10;;;0.10;;
46158;SDS011;74657;45.650;25.590;2024-03-23T04:50:01;0.10;;;0.10;;
46158;SDS011;74657;45.650;25.590;2024-03-23T04:52:24;0.10;;;0.10;;
46158;SDS011;74657;45.650;25.590;2024-03-23T04:54:46;0.10;;;0.10;;
46158;SDS011;74657;45.650;25.590;2024-03-23T04:57:08;0.10;;;0.10;;
46158;SDS011;74657;45.650;25.590;2024-03-23T04:59:29;0.10;;;0.10;;
46158;SDS011;74657;45.650;25.590;2024-03-23T05:01:51;0.13;;;0.13;;
46158;SDS011;74657;45.650;25.590;2024-03-23T05:04:11;0.10;;;0.10;;
46158;SDS011;74657;45.650;25.590;2024-03-23T05:06:33;0.10;;;0.10;;
46158;SDS011;74657;45.650;25.590;2024-03-23T05:08:56;0.10;;;0.10;;
46158;SDS011;74657;45.650;25.590;2024-03-23T05:11:18;0.10;;;0.10;;
46158;SDS011;74657;45.650;25.590;2024-03-23T05:13:40;0.10;;;0.10;;
46158;SDS011;74657;45.650;25.590;2024-03-23T05:16:02;0.10;;;0.10;;
46158;SDS011;74657;45.650;25.590;2024-03-23T05:18:23;0.10;;;0.10;;
46158;SDS011;74657;45.650;25.590;2024-03-23T05:20:47;0.10;;;0.10;;
46158;SDS011;74657;45.650;25.590;2024-03-23T05:23:08;0.10;;;0.10;;
46158;SDS011;74657;45.650;25.590;2024-03-23T05:25:32;0.10;;;0.10;;
46158;SDS011;74657;45.650;25.590;2024-03-23T05:27:53;0.10;;;0.10;;
46158;SDS011;74657;45.650;25.590;2024-03-23T05:30:15;0.10;;;0.10;;
46158;SDS011;74657;45.650;25.590;2024-03-23T05:32:36;0.10;;;0.10;;
46158;SDS011;74657;45.650;25.590;2024-03-23T05:34:59;0.10;;;0.10;;
46158;SDS011;74657;45.650;25.590;2024-03-23T05:37:20;0.10;;;0.10;;
46158;SDS011;74657;45.650;25.590;2024-03-23T05:39:42;0.10;;;0.10;;
46158;SDS011;74657;45.650;25.590;2024-03-23T05:42:05;0.10;;;0.10;;
46158;SDS011;74657;45.650;25.590;2024-03-23T05:44:28;0.10;;;0.10;;
46158;SDS011;74657;45.650;25.590;2024-03-23T05:46:50;0.10;;;0.10;;
46158;SDS011;74657;45.650;25.590;2024-03-23T05:49:12;0.10;;;0.10;;
46158;SDS011;74657;45.650;25.590;2024-03-23T05:51:34;0.10;;;0.10;;
46158;SDS011;74657;45.650;25.590;2024-03-23T05:53:56;0.10;;;0.10;;
46158;SDS011;74657;45.650;25.590;2024-03-23T05:56:19;0.10;;;0.10;;
46158;SDS011;74657;45.650;25.590;2024-03-23T05:58:43;0.10;;;0.10;;
46158;SDS011;74657;45.650;25.590;2024-03-23T06:01:03;0.10;;;0.10;;
46158;SDS011;74657;45.650;25.590;2024-03-23T06:03:26;0.10;;;0.10;;
46158;SDS011;74657;45.650;25.590;2024-03-23T06:05:46;0.10;;;0.10;;
46158;SDS011;74657;45.650;25.590;2024-03-23T06:08:08;0.10;;;0.10;;
46158;SDS011;74657;45.650;25.590;2024-03-23T06:10:29;0.10;;;0.10;;
46158;SDS011;74657;45.650;25.590;2024-03-23T06:12:51;0.10;;;0.10;;
46158;SDS011;74657;45.650;25.590;2024-03-23T06:15:14;0.10;;;0.10;;
46158;SDS011;74657;45.650;25.590;2024-03-23T06:17:36;0.10;;;0.10;;
46158;SDS011;74657;45.650;25.590;2024-03-23T06:19:57;0.10;;;0.10;;
46158;SDS011;74657;45.650;25.590;2024-03-23T06:22:19;0.10;;;0.10;;
46158;SDS011;74657;45.650;25.590;2024-03-23T06:24:40;0.10;;;0.10;;
46158;SDS011;74657;45.650;25.590;2024-03-23T06:27:02;0.10;;;0.10;;
46158;SDS011;74657;45.650;25.590;2024-03-23T06:29:23;0.10;;;0.10;;
46158;SDS011;74657;45.650;25.590;2024-03-23T06:31:53;0.10;;;0.10;;
46158;SDS011;74657;45.650;25.590;2024-03-23T06:34:14;0.10;;;0.10;;
46158;SDS011;74657;45.650;25.590;2024-03-23T06:36:36;0.10;;;0.10;;
46158;SDS011;74657;45.650;25.590;2024-03-23T06:38:58;0.10;;;0.10;;
46158;SDS011;74657;45.650;25.590;2024-03-23T06:41:20;0.10;;;0.10;;
46158;SDS011;74657;45.650;25.590;2024-03-23T06:43:41;0.10;;;0.10;;
46158;SDS011;74657;45.650;25.590;2024-03-23T06:46:03;0.10;;;0.10;;
46158;SDS011;74657;45.650;25.590;2024-03-23T06:48:26;0.10;;;0.10;;
46158;SDS011;74657;45.650;25.590;2024-03-23T06:50:48;0.10;;;0.10;;
46158;SDS011;74657;45.650;25.590;2024-03-23T06:53:09;0.10;;;0.10;;
46158;SDS011;74657;45.650;25.590;2024-03-23T06:55:31;0.10;;;0.10;;
46158;SDS011;74657;45.650;25.590;2024-03-23T06:57:52;0.10;;;0.10;;
46158;SDS011;74657;45.650;25.590;2024-03-23T07:00:14;0.10;;;0.10;;
46158;SDS011;74657;45.650;25.590;2024-03-23T07:02:36;0.10;;;0.10;;
46158;SDS011;74657;45.650;25.590;2024-03-23T07:04:59;0.10;;;0.10;;
46158;SDS011;74657;45.650;25.590;2024-03-23T07:07:21;0.10;;;0.10;;
46158;SDS011;74657;45.650;25.590;2024-03-23T07:09:43;0.10;;;0.10;;
46158;SDS011;74657;45.650;25.590;2024-03-23T07:12:05;0.10;;;0.10;;
46158;SDS011;74657;45.650;25.590;2024-03-23T07:14:27;0.10;;;0.10;;
46158;SDS011;74657;45.650;25.590;2024-03-23T07:16:48;0.10;;;0.10;;
46158;SDS011;74657;45.650;25.590;2024-03-23T07:19:10;0.10;;;0.10;;
46158;SDS011;74657;45.650;25.590;2024-03-23T07:21:32;0.00;;;0.00;;
46158;SDS011;74657;45.650;25.590;2024-03-23T07:23:55;0.10;;;0.10;;
46158;SDS011;74657;45.650;25.590;2024-03-23T07:26:16;0.10;;;0.10;;
46158;SDS011;74657;45.650;25.590;2024-03-23T07:28:38;0.00;;;0.00;;
46158;SDS011;74657;45.650;25.590;2024-03-23T07:31:04;0.00;;;0.00;;
46158;SDS011;74657;45.650;25.590;2024-03-23T07:33:27;0.00;;;0.00;;
46158;SDS011;74657;45.650;25.590;2024-03-23T07:35:48;0.00;;;0.00;;
46158;SDS011;74657;45.650;25.590;2024-03-23T07:38:12;0.00;;;0.00;;
46158;SDS011;74657;45.650;25.590;2024-03-23T07:40:32;0.00;;;0.00;;
46158;SDS011;74657;45.650;25.590;2024-03-23T07:42:54;0.00;;;0.00;;
46158;SDS011;74657;45.650;25.590;2024-03-23T07:45:15;0.00;;;0.00;;
46158;SDS011;74657;45.650;25.590;2024-03-23T07:47:37;0.00;;;0.00;;
46158;SDS011;74657;45.650;25.590;2024-03-23T07:49:58;0.00;;;0.00;;
46158;SDS011;74657;45.650;25.590;2024-03-23T07:52:19;0.00;;;0.00;;
46158;SDS011;74657;45.650;25.590;2024-03-23T07:54:42;0.10;;;0.10;;
46158;SDS011;74657;45.650;25.590;2024-03-23T07:57:04;0.00;;;0.00;;
46158;SDS011;74657;45.650;25.590;2024-03-23T07:59:25;0.10;;;0.10;;
46158;SDS011;74657;45.650;25.590;2024-03-23T08:01:50;0.10;;;0.10;;
46158;SDS011;74657;45.650;25.590;2024-03-23T08:04:11;0.10;;;0.10;;
46158;SDS011;74657;45.650;25.590;2024-03-23T08:06:33;0.00;;;0.00;;
46158;SDS011;74657;45.650;25.590;2024-03-23T08:08:54;0.00;;;0.00;;
46158;SDS011;74657;45.650;25.590;2024-03-23T08:11:22;0.10;;;0.10;;
46158;SDS011;74657;45.650;25.590;2024-03-23T08:13:44;0.00;;;0.00;;
46158;SDS011;74657;45.650;25.590;2024-03-23T08:16:06;0.10;;;0.10;;
46158;SDS011;74657;45.650;25.590;2024-03-23T08:18:28;0.10;;;0.10;;
46158;SDS011;74657;45.650;25.590;2024-03-23T08:20:57;0.10;;;0.10;;
46158;SDS011;74657;45.650;25.590;2024-03-23T08:23:17;0.00;;;0.00;;
46158;SDS011;74657;45.650;25.590;2024-03-23T08:25:40;0.00;;;0.00;;
46158;SDS011;74657;45.650;25.590;2024-03-23T08:28:02;0.08;;;0.08;;
46158;SDS011;74657;45.650;25.590;2024-03-23T08:30:24;0.10;;;0.10;;
46158;SDS011;74657;45.650;25.590;2024-03-23T08:32:45;0.10;;;0.10;;
46158;SDS011;74657;45.650;25.590;2024-03-23T08:35:08;0.00;;;0.00;;
46158;SDS011;74657;45.650;25.590;2024-03-23T08:37:29;0.00;;;0.00;;
46158;SDS011;74657;45.650;25.590;2024-03-23T08:39:50;0.10;;;0.10;;
46158;SDS011;74657;45.650;25.590;2024-03-23T08:42:12;0.00;;;0.00;;
46158;SDS011;74657;45.650;25.590;2024-03-23T08:44:36;0.00;;;0.00;;
46158;SDS011;74657;45.650;25.590;2024-03-23T08:46:57;0.10;;;0.10;;
46158;SDS011;74657;45.650;25.590;2024-03-23T08:49:19;0.00;;;0.00;;
46158;SDS011;74657;45.650;25.590;2024-03-23T08:51:41;0.10;;;0.10;;
46158;SDS011;74657;45.650;25.590;2024-03-23T08:54:03;0.10;;;0.10;;
46158;SDS011;74657;45.650;25.590;2024-03-23T08:56:24;0.10;;;0.10;;
46158;SDS011;74657;45.650;25.590;2024-03-23T08:58:47;0.10;;;0.10;;
46158;SDS011;74657;45.650;25.590;2024-03-23T09:01:11;0.10;;;0.10;;
46158;SDS011;74657;45.650;25.590;2024-03-23T09:03:33;0.10;;;0.10;;
46158;SDS011;74657;45.650;25.590;2024-03-23T09:05:55;0.10;;;0.10;;
46158;SDS011;74657;45.650;25.590;2024-03-23T09:08:18;0.10;;;0.10;;
46158;SDS011;74657;45.650;25.590;2024-03-23T09:10:39;0.05;;;0.05;;
46158;SDS011;74657;45.650;25.590;2024-03-23T09:13:02;0.10;;;0.10;;
46158;SDS011;74657;45.650;25.590;2024-03-23T09:15:22;0.10;;;0.10;;
46158;SDS011;74657;45.650;25.590;2024-03-23T09:17:46;0.10;;;0.10;;
46158;SDS011;74657;45.650;25.590;2024-03-23T09:20:07;0.10;;;0.10;;
46158;SDS011;74657;45.650;25.590;2024-03-23T09:22:30;0.10;;;0.10;;
46158;SDS011;74657;45.650;25.590;2024-03-23T09:24:51;0.10;;;0.10;;
46158;SDS011;74657;45.650;25.590;2024-03-23T09:27:13;0.10;;;0.10;;
46158;SDS011;74657;45.650;25.590;2024-03-23T09:29:33;0.10;;;0.10;;
46158;SDS011;74657;45.650;25.590;2024-03-23T09:31:55;0.10;;;0.10;;
46158;SDS011;74657;45.650;25.590;2024-03-23T09:34:17;0.10;;;0.10;;
46158;SDS011;74657;45.650;25.590;2024-03-23T09:36:39;0.10;;;0.10;;
46158;SDS011;74657;45.650;25.590;2024-03-23T09:39:01;0.10;;;0.10;;
46158;SDS011;74657;45.650;25.590;2024-03-23T09:41:23;0.10;;;0.10;;
46158;SDS011;74657;45.650;25.590;2024-03-23T09:43:44;0.10;;;0.10;;
46158;SDS011;74657;45.650;25.590;2024-03-23T09:46:07;0.10;;;0.10;;
46158;SDS011;74657;45.650;25.590;2024-03-23T09:48:28;0.10;;;0.10;;
46158;SDS011;74657;45.650;25.590;2024-03-23T09:50:52;0.10;;;0.10;;
46158;SDS011;74657;45.650;25.590;2024-03-23T09:53:13;0.10;;;0.10;;
46158;SDS011;74657;45.650;25.590;2024-03-23T09:55:35;0.10;;;0.10;;
46158;SDS011;74657;45.650;25.590;2024-03-23T09:57:57;0.10;;;0.10;;
46158;SDS011;74657;45.650;25.590;2024-03-23T10:00:19;0.00;;;0.00;;
46158;SDS011;74657;45.650;25.590;2024-03-23T10:02:40;0.10;;;0.10;;
46158;SDS011;74657;45.650;25.590;2024-03-23T10:05:03;0.10;;;0.10;;
46158;SDS011;74657;45.650;25.590;2024-03-23T10:07:26;0.10;;;0.10;;
46158;SDS011;74657;45.650;25.590;2024-03-23T10:09:49;0.10;;;0.10;;
46158;SDS011;74657;45.650;25.590;2024-03-23T10:12:11;0.10;;;0.10;;
46158;SDS011;74657;45.650;25.590;2024-03-23T10:14:34;0.10;;;0.10;;
46158;SDS011;74657;45.650;25.590;2024-03-23T10:16:57;0.10;;;0.10;;
46158;SDS011;74657;45.650;25.590;2024-03-23T10:19:34;0.10;;;0.10;;
46158;SDS011;74657;45.650;25.590;2024-03-23T10:21:55;0.17;;;0.17;;
46158;SDS011;74657;45.650;25.590;2024-03-23T10:24:19;0.10;;;0.10;;
46158;SDS011;74657;45.650;25.590;2024-03-23T10:26:41;0.10;;;0.10;;
46158;SDS011;74657;45.650;25.590;2024-03-23T10:29:02;0.10;;;0.10;;
46158;SDS011;74657;45.650;25.590;2024-03-23T10:31:27;0.10;;;0.10;;
46158;SDS011;74657;45.650;25.590;2024-03-23T10:33:48;0.10;;;0.10;;
46158;SDS011;74657;45.650;25.590;2024-03-23T10:36:13;0.10;;;0.10;;
46158;SDS011;74657;45.650;25.590;2024-03-23T10:38:34;0.10;;;0.10;;
46158;SDS011;74657;45.650;25.590;2024-03-23T10:40:58;0.10;;;0.10;;
46158;SDS011;74657;45.650;25.590;2024-03-23T10:43:20;0.10;;;0.10;;
46158;SDS011;74657;45.650;25.590;2024-03-23T10:45:43;0.00;;;0.00;;
46158;SDS011;74657;45.650;25.590;2024-03-23T10:48:04;0.10;;;0.10;;
46158;SDS011;74657;45.650;25.590;2024-03-23T10:50:26;0.10;;;0.10;;
46158;SDS011;74657;45.650;25.590;2024-03-23T10:52:47;0.10;;;0.10;;
46158;SDS011;74657;45.650;25.590;2024-03-23T10:55:10;0.10;;;0.10;;
46158;SDS011;74657;45.650;25.590;2024-03-23T10:57:36;0.03;;;0.03;;
46158;SDS011;74657;45.650;25.590;2024-03-23T11:00:03;0.10;;;0.10;;
46158;SDS011;74657;45.650;25.590;2024-03-23T11:02:25;0.10;;;0.10;;
46158;SDS011;74657;45.650;25.590;2024-03-23T11:04:49;0.00;;;0.00;;
46158;SDS011;74657;45.650;25.590;2024-03-23T11:09:49;0.10;;;0.10;;
46158;SDS011;74657;45.650;25.590;2024-03-23T11:12:25;0.10;;;0.10;;
46158;SDS011;74657;45.650;25.590;2024-03-23T11:14:54;0.00;;;0.00;;
46158;SDS011;74657;45.650;25.590;2024-03-23T11:17:17;0.00;;;0.00;;
46158;SDS011;74657;45.650;25.590;2024-03-23T11:19:40;0.00;;;0.00;;
46158;SDS011;74657;45.650;25.590;2024-03-23T11:22:00;0.10;;;0.10;;
46158;SDS011;74657;45.650;25.590;2024-03-23T11:24:24;0.00;;;0.00;;
46158;SDS011;74657;45.650;25.590;2024-03-23T11:26:45;0.00;;;0.00;;
46158;SDS011;74657;45.650;25.590;2024-03-23T11:29:10;0.00;;;0.00;;
46158;SDS011;74657;45.650;25.590;2024-03-23T11:31:32;0.00;;;0.00;;
46158;SDS011;74657;45.650;25.590;2024-03-23T11:36:30;0.00;;;0.00;;
46158;SDS011;74657;45.650;25.590;2024-03-23T11:38:52;0.00;;;0.00;;
46158;SDS011;74657;45.650;25.590;2024-03-23T11:41:13;0.00;;;0.00;;
46158;SDS011;74657;45.650;25.590;2024-03-23T11:43:35;0.00;;;0.00;;
46158;SDS011;74657;45.650;25.590;2024-03-23T11:45:56;0.10;;;0.10;;
46158;SDS011;74657;45.650;25.590;2024-03-23T11:48:21;0.00;;;0.00;;
46158;SDS011;74657;45.650;25.590;2024-03-23T11:50:42;0.00;;;0.00;;
46158;SDS011;74657;45.650;25.590;2024-03-23T11:55:44;0.00;;;0.00;;
46158;SDS011;74657;45.650;25.590;2024-03-23T11:58:07;0.00;;;0.00;;
46158;SDS011;74657;45.650;25.590;2024-03-23T12:00:29;0.00;;;0.00;;
46158;SDS011;74657;45.650;25.590;2024-03-23T12:02:52;0.00;;;0.00;;
46158;SDS011;74657;45.650;25.590;2024-03-23T12:05:18;0.00;;;0.00;;
46158;SDS011;74657;45.650;25.590;2024-03-23T12:07:41;0.00;;;0.00;;
46158;SDS011;74657;45.650;25.590;2024-03-23T12:10:02;0.00;;;0.00;;
46158;SDS011;74657;45.650;25.590;2024-03-23T12:12:25;0.00;;;0.00;;
46158;SDS011;74657;45.650;25.590;2024-03-23T12:15:01;0.00;;;0.00;;
46158;SDS011;74657;45.650;25.590;2024-03-23T12:17:24;0.00;;;0.00;;
46158;SDS011;74657;45.650;25.590;2024-03-23T12:19:46;0.00;;;0.00;;
46158;SDS011;74657;45.650;25.590;2024-03-23T12:22:09;0.00;;;0.00;;
46158;SDS011;74657;45.650;25.590;2024-03-23T12:24:30;0.10;;;0.10;;
46158;SDS011;74657;45.650;25.590;2024-03-23T12:26:53;0.00;;;0.00;;
46158;SDS011;74657;45.650;25.590;2024-03-23T12:29:14;0.00;;;0.00;;
46158;SDS011;74657;45.650;25.590;2024-03-23T12:31:37;0.00;;;0.00;;
46158;SDS011;74657;45.650;25.590;2024-03-23T12:33:58;0.00;;;0.00;;
46158;SDS011;74657;45.650;25.590;2024-03-23T12:36:20;0.00;;;0.00;;
46158;SDS011;74657;45.650;25.590;2024-03-23T12:38:42;0.00;;;0.00;;
46158;SDS011;74657;45.650;25.590;2024-03-23T12:41:04;0.00;;;0.00;;
46158;SDS011;74657;45.650;25.590;2024-03-23T12:43:25;0.00;;;0.00;;
46158;SDS011;74657;45.650;25.590;2024-03-23T12:45:47;0.00;;;0.00;;
46158;SDS011;74657;45.650;25.590;2024-03-23T12:48:08;0.00;;;0.00;;
46158;SDS011;74657;45.650;25.590;2024-03-23T12:50:30;0.00;;;0.00;;
46158;SDS011;74657;45.650;25.590;2024-03-23T12:52:51;0.00;;;0.00;;
46158;SDS011;74657;45.650;25.590;2024-03-23T12:55:14;0.00;;;0.00;;
46158;SDS011;74657;45.650;25.590;2024-03-23T12:57:35;0.00;;;0.00;;
46158;SDS011;74657;45.650;25.590;2024-03-23T12:59:57;0.00;;;0.00;;
46158;SDS011;74657;45.650;25.590;2024-03-23T13:02:18;0.00;;;0.00;;
46158;SDS011;74657;45.650;25.590;2024-03-23T13:04:40;0.00;;;0.00;;
46158;SDS011;74657;45.650;25.590;2024-03-23T13:07:01;0.00;;;0.00;;
46158;SDS011;74657;45.650;25.590;2024-03-23T13:09:25;0.00;;;0.00;;
46158;SDS011;74657;45.650;25.590;2024-03-23T13:11:47;0.00;;;0.00;;
46158;SDS011;74657;45.650;25.590;2024-03-23T13:14:09;0.00;;;0.00;;
46158;SDS011;74657;45.650;25.590;2024-03-23T13:16:30;0.00;;;0.00;;
46158;SDS011;74657;45.650;25.590;2024-03-23T13:18:52;0.00;;;0.00;;
46158;SDS011;74657;45.650;25.590;2024-03-23T13:21:13;0.00;;;0.00;;
46158;SDS011;74657;45.650;25.590;2024-03-23T13:23:36;0.00;;;0.00;;
46158;SDS011;74657;45.650;25.590;2024-03-23T13:25:59;0.00;;;0.00;;
46158;SDS011;74657;45.650;25.590;2024-03-23T13:28:23;0.00;;;0.00;;
46158;SDS011;74657;45.650;25.590;2024-03-23T13:30:49;0.00;;;0.00;;
46158;SDS011;74657;45.650;25.590;2024-03-23T13:33:12;0.00;;;0.00;;
46158;SDS011;74657;45.650;25.590;2024-03-23T13:35:32;0.00;;;0.00;;
46158;SDS011;74657;45.650;25.590;2024-03-23T13:37:55;0.00;;;0.00;;
46158;SDS011;74657;45.650;25.590;2024-03-23T13:40:16;0.00;;;0.00;;
46158;SDS011;74657;45.650;25.590;2024-03-23T13:42:39;0.00;;;0.00;;
46158;SDS011;74657;45.650;25.590;2024-03-23T13:45:02;0.00;;;0.00;;
46158;SDS011;74657;45.650;25.590;2024-03-23T13:47:24;0.10;;;0.10;;
46158;SDS011;74657;45.650;25.590;2024-03-23T13:49:45;0.00;;;0.00;;
46158;SDS011;74657;45.650;25.590;2024-03-23T13:52:08;0.00;;;0.00;;
46158;SDS011;74657;45.650;25.590;2024-03-23T13:54:29;0.00;;;0.00;;
46158;SDS011;74657;45.650;25.590;2024-03-23T13:56:52;0.00;;;0.00;;
46158;SDS011;74657;45.650;25.590;2024-03-23T13:59:14;0.00;;;0.00;;
46158;SDS011;74657;45.650;25.590;2024-03-23T14:01:38;0.00;;;0.00;;
46158;SDS011;74657;45.650;25.590;2024-03-23T14:03:59;0.00;;;0.00;;
46158;SDS011;74657;45.650;25.590;2024-03-23T14:06:21;0.00;;;0.00;;
46158;SDS011;74657;45.650;25.590;2024-03-23T14:08:42;0.00;;;0.00;;
46158;SDS011;74657;45.650;25.590;2024-03-23T14:11:04;0.00;;;0.00;;
46158;SDS011;74657;45.650;25.590;2024-03-23T14:13:25;0.00;;;0.00;;
46158;SDS011;74657;45.650;25.590;2024-03-23T14:15:52;0.00;;;0.00;;
46158;SDS011;74657;45.650;25.590;2024-03-23T14:18:14;0.00;;;0.00;;
46158;SDS011;74657;45.650;25.590;2024-03-23T14:20:36;0.00;;;0.00;;
46158;SDS011;74657;45.650;25.590;2024-03-23T14:22:57;0.00;;;0.00;;
46158;SDS011;74657;45.650;25.590;2024-03-23T14:25:19;0.00;;;0.00;;
46158;SDS011;74657;45.650;25.590;2024-03-23T14:27:43;0.00;;;0.00;;
46158;SDS011;74657;45.650;25.590;2024-03-23T14:30:05;0.00;;;0.00;;
46158;SDS011;74657;45.650;25.590;2024-03-23T14:32:28;0.00;;;0.00;;
46158;SDS011;74657;45.650;25.590;2024-03-23T14:34:54;0.00;;;0.00;;
46158;SDS011;74657;45.650;25.590;2024-03-23T14:37:15;0.00;;;0.00;;
46158;SDS011;74657;45.650;25.590;2024-03-23T14:39:37;0.00;;;0.00;;
46158;SDS011;74657;45.650;25.590;2024-03-23T14:42:01;0.00;;;0.00;;
46158;SDS011;74657;45.650;25.590;2024-03-23T14:44:23;0.00;;;0.00;;
46158;SDS011;74657;45.650;25.590;2024-03-23T14:46:44;0.00;;;0.00;;
46158;SDS011;74657;45.650;25.590;2024-03-23T14:49:06;0.00;;;0.00;;
46158;SDS011;74657;45.650;25.590;2024-03-23T14:51:28;0.00;;;0.00;;
46158;SDS011;74657;45.650;25.590;2024-03-23T14:53:50;0.00;;;0.00;;
46158;SDS011;74657;45.650;25.590;2024-03-23T14:56:11;0.00;;;0.00;;
46158;SDS011;74657;45.650;25.590;2024-03-23T14:58:35;0.00;;;0.00;;
46158;SDS011;74657;45.650;25.590;2024-03-23T15:00:59;0.00;;;0.00;;
46158;SDS011;74657;45.650;25.590;2024-03-23T15:03:21;0.00;;;0.00;;
46158;SDS011;74657;45.650;25.590;2024-03-23T15:05:42;0.00;;;0.00;;